CWE weather

Cairo West Airport
El Cairo, Giza Governorate, Egypt

Public forecast

Using degrees Celsius for public forecast. Weather courtesy of forecast.io.

METAR (pilot weather report)

Closest report is Cairo International Airport, 25.5 nm (47.2 km) E. Retrieved 2019/04/21 11:30 UTC (13 minutes ago):

HECA 211130Z 30013KT 9999 BKN025 21/03 Q1018 NOSIG

TAF (pilot weather forecast)

Closest forecast is Cairo International Airport, 25.5 nm (47.2 km) E. Retrieved 2019/04/21 06:06 UTC (6 hours ago):

TAF HECA 210500Z 2106/2212 30009KT 9999 SCT025